KTCL/TCL METAR and TAF weather

Enter ICAO airport designator
Station Type Date Time Source
KTCL METAR 2022/05/23 15:00 UTC NOAA

KTCL 231500Z 32004KT 10SM BKN011 BKN017 23/20 A3007 RMK AO2 T02280200


Station Type Date Time Source
KTCL Decoded METAR 2022/05/23 15:00 UTC NOAA

TUSCALOOSA REGIONAL AIRPORT, AL, United States (KTCL) 33-13N 087-37W
May 23, 2022 - 11:00 AM EDT / 2022.05.23 1500 UTC
Wind: from the NW (320 degrees) at 5 MPH (4 KT):0
Visibility: 10 mile(s):0
Sky conditions: mostly cloudy
Temperature: 73.0 F (22.8 C)
Dew Point: 68.0 F (20.0 C)
Relative Humidity: 84%
Pressure (altimeter): 30.07 in. Hg (1018 hPa)
ob: KTCL 231500Z 32004KT 10SM BKN011 BKN017 23/20 A3007 RMK AO2 T02280200
cycle: 15

Station Type Date Time Source
KTCL TAF 2022/05/23 13:36 UTC NOAA

TAF
AMD KTCL 231234Z 2313/2412 30006KT P6SM BKN008 OVC050
FM231500 30006KT P6SM SCT025 OVC050
FM231800 35007KT P6SM VCSH SCT015 BKN050
FM240100 03006KT P6SM BKN050
FM240600 VRB03KT P6SM OVC025
FM240900 00000KT 2SM BR OVC007

Example: see airport list